This is the latest recevied weather packets stored in our database for station/object KI5NYZ-13. If no packets are shown the sender has not sent any weather packets the latest 1 day(s).
| Time | Temp. | Humidity | Pressure | Rain* | Wind** | Luminosity | Snow |
|---|---|---|---|---|---|---|---|
| 1778015020 | 26.67° C | 22% | 1002.3 hPa | 0 mm | 3.58 m/s, 264° | - | - |
| 1778013219 | 26.67° C | 22% | 1002.6 hPa | 0 mm | 3.58 m/s, 261° | - | - |
| 1778011418 | 26.67° C | 23% | 1002.7 hPa | 0 mm | 2.68 m/s, 248° | - | - |
| 1778009617 | 26.11° C | 24% | 1002.9 hPa | 0 mm | 2.68 m/s, 268° | - | - |
| 1778007816 | 26.67° C | 23% | 1003 hPa | 0 mm | 2.24 m/s, 285° | - | - |
| 1778006016 | 26.67° C | 23% | 1003.1 hPa | 0 mm | 2.68 m/s, 291° | - | - |
| 1778004214 | 26.67° C | 22% | 1003.3 hPa | 0 mm | 2.68 m/s, 297° | - | - |
| 1778002414 | 26.11° C | 21% | 1003.5 hPa | 0 mm | 3.13 m/s, 314° | - | - |
| 1777998811 | 25° C | 23% | 1003.8 hPa | 0 mm | 3.13 m/s, 340° | - | - |
| 1777997010 | 25° C | 23% | 1003.8 hPa | 0 mm | 4.02 m/s, 317° | - | - |
| 1777995209 | 23.89° C | 25% | 1003.9 hPa | 0 mm | 3.13 m/s, 320° | - | - |
| 1777993408 | 22.78° C | 29% | 1004.4 hPa | 0 mm | 3.13 m/s, 306° | - | - |
| 1777991607 | 21.11° C | 35% | 1004.5 hPa | 0 mm | 3.58 m/s, 301° | - | - |
| 1777989806 | 20° C | 38% | 1004.9 hPa | 0 mm | 4.02 m/s, 303° | - | - |
| 1777988005 | 18.89° C | 40% | 1005.1 hPa | 0 mm | 3.13 m/s, 300° | - | - |
| 1777986204 | 18.33° C | 43% | 1004.7 hPa | 0 mm | 3.58 m/s, 287° | - | - |
| 1777984404 | 17.78° C | 45% | 1004.8 hPa | 0 mm | 2.68 m/s, 259° | - | - |
| 1777982602 | 16.67° C | 50% | 1005 hPa | 0 mm | 1.79 m/s, 235° | - | - |
| 1777980801 | 17.78° C | 43% | 1004.2 hPa | 0 mm | 0.45 m/s, 304° | - | - |
| 1777979000 | 17.22° C | 46% | 1004.7 hPa | 0 mm | 1.34 m/s, 319° | - | - |
| 1777977199 | 17.22° C | 47% | 1004 hPa | 0 mm | 1.79 m/s, 246° | - | - |
* Rain latest hour (hover to see other rain measurements)
** Current wind speed in m/s (hover to see current wind gust speed)